Time;durP1;ratioP1;P1;durP2;ratioP2;P2;SDS_P1;SDS_P2;PMS_P1;PMS_P2;Temp;Humidity;BMP_temperature;BMP_pressure;BME280_temperature;BME280_humidity;BME280_pressure;Samples;Min_cycle;Max_cycle;Signal;HPM_P1;HPM_P2
2023/09/11 00:01:11;;;;;;;22.38;17.70;;;;;;;;;;4960947;28;20047;-79
2023/09/11 00:03:38;;;;;;;26.83;19.05;;;;;;;;;;4975852;28;20043;-78
2023/09/11 00:06:04;;;;;;;26.48;18.40;;;;;;;;;;4959660;28;20129;-79
2023/09/11 00:08:30;;;;;;;26.35;17.30;;;;;;;;;;4957185;29;20058;-79
2023/09/11 00:10:57;;;;;;;29.40;18.08;;;;;;;;;;4987656;28;20054;-80
2023/09/11 00:13:23;;;;;;;22.55;18.05;;;;;;;;;;4980237;28;20134;-78
2023/09/11 00:15:49;;;;;;;24.27;17.40;;;;;;;;;;4979325;28;20058;-79
2023/09/11 00:18:16;;;;;;;23.65;17.42;;;;;;;;;;4961390;28;20486;-79
2023/09/11 00:20:42;;;;;;;26.33;18.17;;;;;;;;;;4962381;28;20047;-78
2023/09/11 00:23:08;;;;;;;25.65;17.88;;;;;;;;;;4986641;28;20041;-79
2023/09/11 00:25:34;;;;;;;26.23;17.67;;;;;;;;;;4983610;28;20453;-79
2023/09/11 00:28:00;;;;;;;26.42;18.38;;;;;;;;;;4959246;28;20044;-79
2023/09/11 00:30:26;;;;;;;24.77;17.30;;;;;;;;;;4958168;28;20469;-79
2023/09/11 00:32:53;;;;;;;25.05;16.83;;;;;;;;;;4981019;28;20102;-79
2023/09/11 00:35:19;;;;;;;26.90;17.05;;;;;;;;;;4980987;28;20050;-79
2023/09/11 00:37:45;;;;;;;24.00;18.27;;;;;;;;;;4980542;28;20047;-80
2023/09/11 00:40:11;;;;;;;24.90;17.20;;;;;;;;;;4981329;28;20078;-78
2023/09/11 00:42:37;;;;;;;25.17;16.38;;;;;;;;;;4982869;28;20069;-79
2023/09/11 00:45:03;;;;;;;22.50;17.50;;;;;;;;;;4980776;28;20043;-78
2023/09/11 00:47:29;;;;;;;28.13;17.60;;;;;;;;;;4981915;28;20050;-79
2023/09/11 00:49:56;;;;;;;22.33;17.20;;;;;;;;;;4974532;28;20133;-78
2023/09/11 00:52:22;;;;;;;24.27;17.98;;;;;;;;;;4977119;28;20047;-78
2023/09/11 00:54:49;;;;;;;27.30;17.92;;;;;;;;;;4976284;28;20050;-79
2023/09/11 00:57:18;;;;;;;27.30;17.15;;;;;;;;;;4976087;28;20539;-78
2023/09/11 00:59:48;;;;;;;25.70;17.27;;;;;;;;;;4976663;28;20140;-79
2023/09/11 01:02:15;;;;;;;22.30;17.48;;;;;;;;;;4977494;28;20061;-78
2023/09/11 01:04:44;;;;;;;28.45;17.88;;;;;;;;;;4977954;28;20038;-79
2023/09/11 01:07:12;;;;;;;25.08;18.23;;;;;;;;;;4981028;28;20069;-81
2023/09/11 01:09:38;;;;;;;25.48;17.25;;;;;;;;;;4977977;28;20043;-78
2023/09/11 01:12:05;;;;;;;23.63;17.70;;;;;;;;;;4960740;28;20050;-78
2023/09/11 01:14:31;;;;;;;25.83;18.67;;;;;;;;;;4961135;28;20046;-78
2023/09/11 01:17:15;;;;;;;23.25;18.27;;;;;;;;;;4977479;28;20035;-78
2023/09/11 01:20:00;;;;;;;24.85;17.98;;;;;;;;;;4975366;28;20078;-78
2023/09/11 01:22:29;;;;;;;25.88;17.80;;;;;;;;;;4976677;28;20043;-79
2023/09/11 01:25:14;;;;;;;27.85;18.70;;;;;;;;;;4979700;28;20051;-79
2023/09/11 01:27:58;;;;;;;27.30;18.25;;;;;;;;;;4980278;28;20235;-79
2023/09/11 01:30:25;;;;;;;23.35;18.63;;;;;;;;;;4978642;28;20043;-79
2023/09/11 01:32:52;;;;;;;26.92;17.75;;;;;;;;;;4979794;28;20478;-79
2023/09/11 01:35:19;;;;;;;28.15;18.33;;;;;;;;;;4981254;28;20066;-79
2023/09/11 01:37:45;;;;;;;25.02;18.05;;;;;;;;;;4992710;28;20076;-80
2023/09/11 01:40:11;;;;;;;27.88;18.13;;;;;;;;;;4979799;28;20046;-79
2023/09/11 01:42:41;;;;;;;29.48;18.48;;;;;;;;;;4959016;28;20059;-80
2023/09/11 01:45:08;;;;;;;24.10;17.80;;;;;;;;;;4960935;28;20047;-79
2023/09/11 01:47:34;;;;;;;28.45;17.85;;;;;;;;;;4962474;28;20043;-79
2023/09/11 01:50:01;;;;;;;26.00;18.30;;;;;;;;;;4956949;28;20066;-79
2023/09/11 01:52:28;;;;;;;27.40;18.00;;;;;;;;;;4958110;29;20049;-80
2023/09/11 01:54:56;;;;;;;25.25;17.83;;;;;;;;;;4958219;28;20051;-79
2023/09/11 01:57:22;;;;;;;26.58;18.20;;;;;;;;;;4959803;29;20486;-79
2023/09/11 01:59:48;;;;;;;28.98;18.80;;;;;;;;;;4957761;29;20506;-79
2023/09/11 02:02:14;;;;;;;26.00;17.80;;;;;;;;;;4960001;29;20156;-79
2023/09/11 02:04:40;;;;;;;27.10;17.50;;;;;;;;;;4961056;29;20197;-79
2023/09/11 02:07:06;;;;;;;25.95;16.92;;;;;;;;;;4961766;29;20051;-80
2023/09/11 02:09:32;;;;;;;23.65;17.30;;;;;;;;;;4960848;29;20050;-79
2023/09/11 02:11:58;;;;;;;26.25;18.08;;;;;;;;;;4961628;29;20079;-79
2023/09/11 02:14:24;;;;;;;26.75;17.65;;;;;;;;;;4961923;29;20047;-79
2023/09/11 02:16:50;;;;;;;27.30;18.75;;;;;;;;;;4958130;29;20055;-79
2023/09/11 02:19:16;;;;;;;34.33;17.60;;;;;;;;;;4958246;28;20043;-79
2023/09/11 02:21:42;;;;;;;27.90;19.02;;;;;;;;;;4941738;29;20079;-79
2023/09/11 02:24:08;;;;;;;26.55;18.10;;;;;;;;;;4955510;29;20050;-79
2023/09/11 02:26:34;;;;;;;25.75;18.98;;;;;;;;;;4960076;29;20043;-80
2023/09/11 02:29:00;;;;;;;28.90;18.65;;;;;;;;;;4957912;29;20045;-80
2023/09/11 02:31:26;;;;;;;27.13;18.45;;;;;;;;;;4957067;29;20051;-80
2023/09/11 02:33:53;;;;;;;28.27;18.67;;;;;;;;;;4958544;28;20051;-79
2023/09/11 02:36:19;;;;;;;29.58;18.65;;;;;;;;;;4956742;29;20043;-78
2023/09/11 02:38:45;;;;;;;27.60;19.50;;;;;;;;;;4950941;28;20078;-79
2023/09/11 02:41:11;;;;;;;28.27;18.83;;;;;;;;;;4953775;29;20051;-78
2023/09/11 02:43:37;;;;;;;28.77;19.17;;;;;;;;;;4967059;28;20046;-79
2023/09/11 02:46:03;;;;;;;26.25;18.77;;;;;;;;;;4974112;28;20398;-78
2023/09/11 02:48:31;;;;;;;30.42;18.95;;;;;;;;;;4955136;28;20125;-78
2023/09/11 02:50:57;;;;;;;27.48;19.20;;;;;;;;;;4955423;28;20055;-78
2023/09/11 02:53:23;;;;;;;26.65;18.95;;;;;;;;;;4973613;28;20135;-78
2023/09/11 02:55:49;;;;;;;25.40;18.45;;;;;;;;;;4975053;28;20039;-79
2023/09/11 02:58:15;;;;;;;28.05;20.63;;;;;;;;;;4977861;28;20050;-79
2023/09/11 03:00:41;;;;;;;29.27;19.10;;;;;;;;;;4978451;28;20053;-79
2023/09/11 03:03:07;;;;;;;26.92;19.08;;;;;;;;;;4978250;28;20093;-78
2023/09/11 03:05:33;;;;;;;29.05;20.60;;;;;;;;;;4977032;28;20049;-79
2023/09/11 03:08:00;;;;;;;32.72;19.85;;;;;;;;;;4967435;28;20049;-79
2023/09/11 03:10:29;;;;;;;26.33;19.95;;;;;;;;;;4976468;28;20047;-79
2023/09/11 03:12:55;;;;;;;29.95;20.02;;;;;;;;;;4978069;28;20054;-79
2023/09/11 03:15:28;;;;;;;30.70;20.17;;;;;;;;;;4977859;28;20057;-79
2023/09/11 03:17:54;;;;;;;27.02;20.08;;;;;;;;;;4966779;28;20126;-78
2023/09/11 03:20:20;;;;;;;27.08;20.35;;;;;;;;;;4976105;28;20046;-79
2023/09/11 03:22:46;;;;;;;24.63;20.05;;;;;;;;;;4979118;28;20070;-80
2023/09/11 03:25:12;;;;;;;33.80;20.33;;;;;;;;;;4974510;28;20062;-78
2023/09/11 03:27:38;;;;;;;35.28;21.02;;;;;;;;;;4974001;28;20043;-79
2023/09/11 03:30:05;;;;;;;29.25;21.83;;;;;;;;;;4976249;28;20113;-79
2023/09/11 03:32:31;;;;;;;30.40;20.60;;;;;;;;;;4972068;28;20039;-79
2023/09/11 03:34:57;;;;;;;30.45;20.92;;;;;;;;;;4972216;28;20178;-78
2023/09/11 03:37:23;;;;;;;29.58;20.88;;;;;;;;;;4975806;28;20049;-78
2023/09/11 03:39:49;;;;;;;34.53;21.63;;;;;;;;;;4971091;28;20484;-79
2023/09/11 03:42:15;;;;;;;31.38;22.67;;;;;;;;;;4975183;28;20560;-79
2023/09/11 03:44:41;;;;;;;29.25;22.70;;;;;;;;;;4982246;28;20397;-78
2023/09/11 03:47:07;;;;;;;30.83;23.38;;;;;;;;;;4973594;28;20043;-78
2023/09/11 03:49:33;;;;;;;29.88;21.65;;;;;;;;;;4970907;28;20042;-78
2023/09/11 03:51:59;;;;;;;29.25;23.33;;;;;;;;;;4979989;28;20129;-79
2023/09/11 03:54:25;;;;;;;27.05;22.42;;;;;;;;;;4975655;28;20074;-78
2023/09/11 03:56:51;;;;;;;34.75;23.80;;;;;;;;;;4974617;28;20106;-78
2023/09/11 03:59:17;;;;;;;30.52;24.02;;;;;;;;;;4972642;28;20482;-78
2023/09/11 04:01:43;;;;;;;32.75;25.58;;;;;;;;;;4976744;28;20452;-78
2023/09/11 04:04:09;;;;;;;34.88;24.52;;;;;;;;;;4975434;28;20047;-78
2023/09/11 04:06:35;;;;;;;36.53;24.20;;;;;;;;;;4972498;28;20070;-78
2023/09/11 04:09:03;;;;;;;34.05;23.80;;;;;;;;;;4980407;28;20035;-79
2023/09/11 04:11:29;;;;;;;31.13;24.67;;;;;;;;;;4961749;28;20050;-79
2023/09/11 04:13:55;;;;;;;32.80;23.88;;;;;;;;;;4988748;28;20043;-78
2023/09/11 04:16:21;;;;;;;29.30;24.02;;;;;;;;;;4976881;28;20097;-78
2023/09/11 04:18:47;;;;;;;28.73;24.50;;;;;;;;;;4984343;28;20046;-78
2023/09/11 04:21:13;;;;;;;28.75;23.42;;;;;;;;;;4981003;28;20121;-78
2023/09/11 04:23:39;;;;;;;34.50;23.67;;;;;;;;;;4977828;28;20047;-79
2023/09/11 04:26:06;;;;;;;29.80;23.45;;;;;;;;;;4977601;28;20046;-78
2023/09/11 04:28:34;;;;;;;26.30;21.75;;;;;;;;;;4977351;28;20081;-78
2023/09/11 04:31:00;;;;;;;33.78;22.95;;;;;;;;;;4977480;28;20126;-79
2023/09/11 04:33:27;;;;;;;30.30;23.73;;;;;;;;;;4983664;28;20047;-78
2023/09/11 04:35:53;;;;;;;35.90;24.38;;;;;;;;;;4977586;28;20421;-78
2023/09/11 04:38:19;;;;;;;33.78;24.98;;;;;;;;;;4962381;28;20049;-78
2023/09/11 04:40:45;;;;;;;33.10;24.13;;;;;;;;;;4980415;28;20047;-78
2023/09/11 04:43:11;;;;;;;34.95;23.95;;;;;;;;;;4934130;29;20051;-78
2023/09/11 04:45:38;;;;;;;34.20;24.83;;;;;;;;;;4958282;28;20405;-78
2023/09/11 04:48:04;;;;;;;34.63;25.50;;;;;;;;;;4958893;28;20043;-78
2023/09/11 04:50:30;;;;;;;34.75;24.27;;;;;;;;;;4958551;28;20055;-79
2023/09/11 04:52:56;;;;;;;31.10;24.33;;;;;;;;;;4959329;28;20050;-79
2023/09/11 04:55:23;;;;;;;35.58;24.48;;;;;;;;;;4944316;29;20047;-78
2023/09/11 04:57:49;;;;;;;36.20;23.55;;;;;;;;;;4958781;28;20129;-79
2023/09/11 05:00:15;;;;;;;32.35;24.55;;;;;;;;;;4958792;29;20095;-78
2023/09/11 05:02:41;;;;;;;33.58;25.25;;;;;;;;;;4946324;28;20110;-78
2023/09/11 05:05:07;;;;;;;36.15;25.83;;;;;;;;;;4956542;29;20142;-79
2023/09/11 05:07:33;;;;;;;30.75;24.63;;;;;;;;;;4955991;28;20370;-79
2023/09/11 05:10:01;;;;;;;33.38;25.55;;;;;;;;;;4956221;29;20191;-79
2023/09/11 05:12:27;;;;;;;35.45;25.85;;;;;;;;;;4959532;28;20405;-79
2023/09/11 05:14:53;;;;;;;32.63;24.65;;;;;;;;;;4959676;28;20071;-79
2023/09/11 05:17:20;;;;;;;31.27;24.73;;;;;;;;;;4955120;28;20503;-80
2023/09/11 05:19:46;;;;;;;30.70;24.77;;;;;;;;;;4959363;28;20055;-79
2023/09/11 05:22:12;;;;;;;29.85;24.05;;;;;;;;;;4958301;28;20098;-79
2023/09/11 05:24:38;;;;;;;34.00;24.48;;;;;;;;;;4961234;28;20079;-79
2023/09/11 05:27:04;;;;;;;30.95;23.15;;;;;;;;;;4959885;28;20046;-79
2023/09/11 05:29:30;;;;;;;31.67;23.83;;;;;;;;;;4964738;28;20044;-80
2023/09/11 05:31:56;;;;;;;32.75;23.52;;;;;;;;;;4956044;28;20398;-80
2023/09/11 05:34:22;;;;;;;33.05;23.98;;;;;;;;;;4958947;29;20043;-79
2023/09/11 05:36:48;;;;;;;31.35;23.45;;;;;;;;;;4961031;28;20054;-80
2023/09/11 05:39:14;;;;;;;30.10;22.80;;;;;;;;;;4964237;28;20043;-79
2023/09/11 05:41:40;;;;;;;32.72;22.35;;;;;;;;;;4959829;28;20057;-80
2023/09/11 05:44:06;;;;;;;33.05;22.83;;;;;;;;;;4978133;28;20051;-79
2023/09/11 05:46:32;;;;;;;34.00;22.05;;;;;;;;;;4980178;28;20057;-80
2023/09/11 05:48:58;;;;;;;29.33;21.02;;;;;;;;;;4979464;28;20066;-80
2023/09/11 05:51:24;;;;;;;28.83;21.98;;;;;;;;;;4981911;28;20063;-80
2023/09/11 05:53:50;;;;;;;32.78;20.38;;;;;;;;;;4981824;28;20092;-80
2023/09/11 05:56:16;;;;;;;30.77;21.20;;;;;;;;;;4981418;28;20054;-80
2023/09/11 05:58:43;;;;;;;34.13;19.13;;;;;;;;;;4982842;28;20133;-80
2023/09/11 06:01:09;;;;;;;30.73;18.77;;;;;;;;;;4982390;28;20047;-80
2023/09/11 06:03:35;;;;;;;31.20;18.80;;;;;;;;;;4977177;28;20054;-80
2023/09/11 06:06:01;;;;;;;28.83;19.15;;;;;;;;;;4979126;28;20070;-80
2023/09/11 06:08:27;;;;;;;28.75;19.08;;;;;;;;;;4979620;28;20055;-79
2023/09/11 06:10:53;;;;;;;29.90;17.90;;;;;;;;;;4979062;28;20051;-79
2023/09/11 06:13:19;;;;;;;31.52;17.75;;;;;;;;;;4961785;28;20050;-80
2023/09/11 06:15:45;;;;;;;22.63;16.30;;;;;;;;;;4954287;28;20501;-80
2023/09/11 06:18:11;;;;;;;28.73;17.42;;;;;;;;;;4970743;28;20061;-77
2023/09/11 06:20:37;;;;;;;20.40;15.57;;;;;;;;;;4972257;28;20038;-79
2023/09/11 06:23:03;;;;;;;25.33;16.83;;;;;;;;;;4976791;28;20058;-78
2023/09/11 06:25:30;;;;;;;26.90;15.75;;;;;;;;;;4974778;28;20035;-79
2023/09/11 06:27:57;;;;;;;25.90;15.90;;;;;;;;;;4974257;28;20161;-78
2023/09/11 06:30:23;;;;;;;30.45;16.15;;;;;;;;;;4972871;28;20608;-78
2023/09/11 06:32:49;;;;;;;24.85;14.50;;;;;;;;;;4979690;28;20508;-76
2023/09/11 06:35:17;;;;;;;29.95;15.57;;;;;;;;;;4979271;28;20130;-78
2023/09/11 06:37:43;;;;;;;30.00;15.93;;;;;;;;;;4979525;28;20097;-79
2023/09/11 06:40:09;;;;;;;29.63;15.20;;;;;;;;;;4980340;28;20528;-78
2023/09/11 06:42:36;;;;;;;25.05;15.57;;;;;;;;;;4979222;28;20051;-78
2023/09/11 06:45:02;;;;;;;25.95;15.23;;;;;;;;;;4979583;28;20416;-79
2023/09/11 06:47:29;;;;;;;25.58;15.10;;;;;;;;;;4978772;28;20059;-78
2023/09/11 06:49:55;;;;;;;27.63;15.85;;;;;;;;;;4970101;28;20106;-79
2023/09/11 06:52:21;;;;;;;30.08;15.10;;;;;;;;;;4978336;28;20081;-78
2023/09/11 06:54:47;;;;;;;21.58;14.52;;;;;;;;;;4972678;28;20046;-78
2023/09/11 06:57:13;;;;;;;22.27;14.02;;;;;;;;;;4979922;28;20054;-78
2023/09/11 06:59:39;;;;;;;27.13;14.88;;;;;;;;;;4979189;28;20046;-78
2023/09/11 07:02:06;;;;;;;29.05;15.07;;;;;;;;;;4964546;28;20527;-77
2023/09/11 07:04:32;;;;;;;28.08;15.75;;;;;;;;;;4977888;28;20082;-78
2023/09/11 07:06:58;;;;;;;24.25;14.05;;;;;;;;;;4978317;28;20097;-78
2023/09/11 07:09:24;;;;;;;25.10;13.98;;;;;;;;;;4979373;28;20081;-79
2023/09/11 07:11:51;;;;;;;27.90;14.98;;;;;;;;;;4979397;28;20428;-78
2023/09/11 07:14:20;;;;;;;24.80;14.82;;;;;;;;;;4979012;28;20110;-78
2023/09/11 07:16:46;;;;;;;26.88;14.43;;;;;;;;;;4978541;28;20398;-79
2023/09/11 07:19:12;;;;;;;27.25;15.25;;;;;;;;;;4976358;28;20381;-80
2023/09/11 07:21:39;;;;;;;26.60;15.02;;;;;;;;;;4977806;28;20039;-78
2023/09/11 07:24:05;;;;;;;28.35;13.32;;;;;;;;;;4977054;28;20221;-76
2023/09/11 07:26:31;;;;;;;27.77;14.30;;;;;;;;;;4974104;28;20050;-76
2023/09/11 07:28:58;;;;;;;27.25;13.68;;;;;;;;;;4973019;28;20051;-78
2023/09/11 07:31:24;;;;;;;25.13;14.07;;;;;;;;;;4973504;28;20114;-77
2023/09/11 07:33:51;;;;;;;30.10;13.27;;;;;;;;;;4973390;28;20055;-77
2023/09/11 07:36:18;;;;;;;30.85;14.32;;;;;;;;;;4954129;28;20052;-77
2023/09/11 07:38:47;;;;;;;27.92;13.48;;;;;;;;;;4969162;28;20098;-78
2023/09/11 07:41:14;;;;;;;25.65;12.70;;;;;;;;;;4982697;28;20417;-80
2023/09/11 07:43:40;;;;;;;31.70;14.30;;;;;;;;;;4964781;28;20051;-78
2023/09/11 07:46:06;;;;;;;23.35;14.45;;;;;;;;;;4974374;28;20047;-79
2023/09/11 07:48:32;;;;;;;29.88;13.63;;;;;;;;;;4976126;28;20594;-77
2023/09/11 07:50:58;;;;;;;24.63;13.52;;;;;;;;;;4977948;28;20046;-77
2023/09/11 07:53:24;;;;;;;27.60;13.57;;;;;;;;;;4976374;28;20061;-78
2023/09/11 07:55:50;;;;;;;26.35;13.68;;;;;;;;;;4976793;28;20524;-78
2023/09/11 07:58:17;;;;;;;24.85;13.88;;;;;;;;;;4977962;28;20042;-77
2023/09/11 08:00:43;;;;;;;22.45;12.98;;;;;;;;;;4956800;28;20046;-77
2023/09/11 08:03:09;;;;;;;19.85;12.18;;;;;;;;;;4962837;28;20405;-77
2023/09/11 08:05:35;;;;;;;25.65;13.00;;;;;;;;;;4977709;28;20355;-77
2023/09/11 08:08:02;;;;;;;29.77;14.32;;;;;;;;;;4977163;28;20138;-77
2023/09/11 08:10:29;;;;;;;21.00;12.93;;;;;;;;;;4980525;28;20061;-77
2023/09/11 08:12:55;;;;;;;22.85;11.85;;;;;;;;;;4981398;28;20449;-78
2023/09/11 08:15:21;;;;;;;24.02;13.18;;;;;;;;;;4982152;28;20050;-78
2023/09/11 08:17:48;;;;;;;24.98;13.50;;;;;;;;;;4981410;28;20098;-78
2023/09/11 08:20:14;;;;;;;29.60;13.05;;;;;;;;;;4981345;28;20047;-78
2023/09/11 08:22:41;;;;;;;26.92;12.45;;;;;;;;;;4977728;28;20418;-79
2023/09/11 08:25:09;;;;;;;24.90;13.02;;;;;;;;;;4978671;28;20114;-78
2023/09/11 08:27:35;;;;;;;24.80;12.48;;;;;;;;;;4977125;28;20049;-77
2023/09/11 08:30:01;;;;;;;26.80;12.23;;;;;;;;;;4981548;28;20507;-77
2023/09/11 08:32:28;;;;;;;23.17;12.15;;;;;;;;;;4973362;28;20077;-78
2023/09/11 08:34:54;;;;;;;27.85;12.23;;;;;;;;;;4968543;28;20052;-78
2023/09/11 08:37:20;;;;;;;26.65;12.20;;;;;;;;;;4978489;28;20485;-77
2023/09/11 08:39:46;;;;;;;24.73;12.50;;;;;;;;;;4972758;28;20584;-79
2023/09/11 08:42:12;;;;;;;24.52;11.95;;;;;;;;;;4973294;28;20078;-78
2023/09/11 08:44:38;;;;;;;25.67;11.48;;;;;;;;;;4969503;28;20049;-77
2023/09/11 08:47:06;;;;;;;22.30;11.25;;;;;;;;;;4944351;29;20460;-79
2023/09/11 08:49:33;;;;;;;22.98;11.52;;;;;;;;;;4971021;28;20031;-79
2023/09/11 08:52:00;;;;;;;25.45;12.30;;;;;;;;;;4944726;28;20039;-79
2023/09/11 08:54:31;;;;;;;22.25;11.25;;;;;;;;;;4979587;28;20050;-78
2023/09/11 08:56:58;;;;;;;26.52;9.77;;;;;;;;;;4963395;29;20185;-80
2023/09/11 08:59:26;;;;;;;23.10;10.65;;;;;;;;;;4963334;29;20098;-77
2023/09/11 09:01:52;;;;;;;26.25;11.68;;;;;;;;;;4946703;29;20082;-79
2023/09/11 09:04:20;;;;;;;22.80;10.05;;;;;;;;;;4961919;29;20409;-79
2023/09/11 09:06:47;;;;;;;21.73;9.88;;;;;;;;;;4948866;29;20072;-78
2023/09/11 09:09:13;;;;;;;23.45;10.15;;;;;;;;;;4960152;29;20058;-78
2023/09/11 09:11:41;;;;;;;18.90;9.77;;;;;;;;;;4944906;29;20054;-80
2023/09/11 09:14:08;;;;;;;21.70;10.25;;;;;;;;;;4963164;29;20047;-79
2023/09/11 09:16:34;;;;;;;18.58;10.05;;;;;;;;;;4942354;29;20051;-78
2023/09/11 09:19:00;;;;;;;28.00;10.77;;;;;;;;;;4956499;28;20544;-79
2023/09/11 09:21:28;;;;;;;20.17;10.27;;;;;;;;;;4934480;29;20092;-78
2023/09/11 09:23:54;;;;;;;20.83;9.27;;;;;;;;;;4953481;29;20051;-79
2023/09/11 09:26:22;;;;;;;19.45;10.10;;;;;;;;;;4961474;29;20047;-82
2023/09/11 09:28:51;;;;;;;22.35;9.43;;;;;;;;;;4963507;29;20051;-79
2023/09/11 09:31:26;;;;;;;21.02;10.13;;;;;;;;;;4963058;29;20099;-78
2023/09/11 09:33:53;;;;;;;21.35;8.50;;;;;;;;;;4948918;28;20052;-78
2023/09/11 09:36:20;;;;;;;21.50;8.35;;;;;;;;;;4956155;28;20066;-80
2023/09/11 09:38:46;;;;;;;17.38;8.25;;;;;;;;;;4959904;28;20051;-78
2023/09/11 09:41:12;;;;;;;17.77;7.50;;;;;;;;;;4960436;29;20047;-78
2023/09/11 09:43:38;;;;;;;17.73;7.85;;;;;;;;;;4974080;28;20129;-78
2023/09/11 09:46:20;;;;;;;17.88;8.80;;;;;;;;;;4969474;28;20066;-78
2023/09/11 09:48:47;;;;;;;20.02;7.25;;;;;;;;;;4944533;29;20055;-78
2023/09/11 09:51:13;;;;;;;14.35;6.75;;;;;;;;;;4961352;29;20050;-78
2023/09/11 09:53:46;;;;;;;16.52;8.05;;;;;;;;;;4964398;28;20382;-78
2023/09/11 09:56:12;;;;;;;16.08;8.07;;;;;;;;;;4973919;28;20217;-79
2023/09/11 09:58:40;;;;;;;15.07;8.13;;;;;;;;;;4973383;28;20054;-78
2023/09/11 10:01:06;;;;;;;16.02;7.95;;;;;;;;;;4978777;28;20062;-78
2023/09/11 10:03:58;;;;;;;17.65;7.85;;;;;;;;;;4969086;28;20051;-78
2023/09/11 10:06:31;;;;;;;17.30;7.68;;;;;;;;;;4973170;28;20054;-78
2023/09/11 10:09:10;;;;;;;17.77;8.30;;;;;;;;;;4980013;28;20058;-77
2023/09/11 10:11:37;;;;;;;18.23;8.10;;;;;;;;;;4948734;29;20047;-79
2023/09/11 10:14:04;;;;;;;17.00;7.20;;;;;;;;;;4960013;29;20051;-78
2023/09/11 10:16:30;;;;;;;18.63;7.80;;;;;;;;;;4959670;29;20498;-77
2023/09/11 10:18:58;;;;;;;20.90;7.90;;;;;;;;;;4970550;28;20094;-77
2023/09/11 10:21:24;;;;;;;16.40;6.90;;;;;;;;;;4942837;29;20476;-78
2023/09/11 10:23:50;;;;;;;14.95;7.03;;;;;;;;;;4975037;28;20097;-78
2023/09/11 10:26:19;;;;;;;16.38;7.40;;;;;;;;;;4979023;28;20046;-78
2023/09/11 10:28:46;;;;;;;22.02;7.85;;;;;;;;;;4977537;28;20413;-77
2023/09/11 10:31:12;;;;;;;17.95;7.82;;;;;;;;;;4979308;28;20051;-80
2023/09/11 10:33:39;;;;;;;17.02;7.38;;;;;;;;;;4976237;28;20129;-78
2023/09/11 10:36:08;;;;;;;16.15;6.50;;;;;;;;;;4956816;28;20077;-78
2023/09/11 10:38:34;;;;;;;16.50;7.05;;;;;;;;;;4980248;28;20501;-78
2023/09/11 10:41:01;;;;;;;19.73;7.32;;;;;;;;;;4980158;28;20038;-78
2023/09/11 10:43:27;;;;;;;17.20;7.43;;;;;;;;;;4980164;28;20050;-78
2023/09/11 10:45:54;;;;;;;14.65;7.22;;;;;;;;;;4978803;28;20045;-78
2023/09/11 10:48:30;;;;;;;18.45;8.20;;;;;;;;;;4961005;28;20106;-78
2023/09/11 10:50:57;;;;;;;15.82;8.15;;;;;;;;;;4970571;28;20039;-78
2023/09/11 10:53:30;;;;;;;18.02;8.18;;;;;;;;;;4960118;28;20063;-78
2023/09/11 10:55:57;;;;;;;16.95;8.55;;;;;;;;;;4978681;28;20043;-77
2023/09/11 10:58:25;;;;;;;18.45;8.60;;;;;;;;;;4975770;28;20046;-78
2023/09/11 11:00:53;;;;;;;15.27;8.45;;;;;;;;;;4979766;28;20084;-79
2023/09/11 11:03:19;;;;;;;19.10;8.25;;;;;;;;;;4958607;28;20075;-77
2023/09/11 11:05:46;;;;;;;14.85;7.95;;;;;;;;;;4978406;28;20047;-79
2023/09/11 11:08:12;;;;;;;17.38;8.18;;;;;;;;;;4975960;28;20051;-78
2023/09/11 11:10:42;;;;;;;18.00;8.10;;;;;;;;;;4974671;28;20046;-79
2023/09/11 11:13:11;;;;;;;15.00;8.20;;;;;;;;;;4964982;28;20062;-78
2023/09/11 11:15:37;;;;;;;18.58;8.20;;;;;;;;;;4974492;28;20054;-79
2023/09/11 11:18:07;;;;;;;18.05;8.27;;;;;;;;;;4958814;29;20082;-78
2023/09/11 11:20:37;;;;;;;15.00;8.20;;;;;;;;;;4957742;29;20035;-78
2023/09/11 11:23:07;;;;;;;17.37;7.83;;;;;;;;;;4962788;28;20040;-78
2023/09/11 11:25:33;;;;;;;14.35;7.78;;;;;;;;;;4975814;28;20046;-78
2023/09/11 11:28:18;;;;;;;17.48;7.75;;;;;;;;;;4978202;28;20042;-78
2023/09/11 11:30:44;;;;;;;12.27;7.28;;;;;;;;;;4976374;28;20109;-78
2023/09/11 11:33:20;;;;;;;11.35;6.63;;;;;;;;;;4979638;28;20120;-79
2023/09/11 11:35:47;;;;;;;12.13;7.30;;;;;;;;;;4978595;28;20050;-79
2023/09/11 11:38:17;;;;;;;15.23;6.72;;;;;;;;;;4962543;28;20129;-80
2023/09/11 11:40:44;;;;;;;10.47;6.83;;;;;;;;;;4979737;28;20520;-79
2023/09/11 11:43:11;;;;;;;16.13;6.85;;;;;;;;;;4979245;28;20421;-79
2023/09/11 11:45:37;;;;;;;13.20;7.32;;;;;;;;;;4980407;28;20054;-79
2023/09/11 11:48:03;;;;;;;19.73;7.40;;;;;;;;;;4980146;28;20053;-78
2023/09/11 11:50:31;;;;;;;18.75;7.53;;;;;;;;;;4979552;28;20046;-79
2023/09/11 11:52:57;;;;;;;13.85;7.57;;;;;;;;;;4959357;28;20483;-79
2023/09/11 11:55:26;;;;;;;13.77;7.60;;;;;;;;;;4969883;28;20077;-79
2023/09/11 11:57:52;;;;;;;15.25;7.57;;;;;;;;;;4973331;28;20083;-79
2023/09/11 12:00:19;;;;;;;12.88;7.40;;;;;;;;;;4971351;28;20050;-79
2023/09/11 12:02:45;;;;;;;14.20;7.90;;;;;;;;;;4980387;28;20089;-79
2023/09/11 12:05:14;;;;;;;13.13;7.80;;;;;;;;;;4976976;28;20263;-78
2023/09/11 12:07:41;;;;;;;15.50;8.15;;;;;;;;;;4959820;28;20489;-79
2023/09/11 12:10:11;;;;;;;19.23;8.93;;;;;;;;;;4959937;29;20051;-79
2023/09/11 12:12:41;;;;;;;19.10;8.85;;;;;;;;;;4975255;28;20354;-79
2023/09/11 12:15:08;;;;;;;18.77;8.93;;;;;;;;;;4979503;28;20126;-79
2023/09/11 12:17:34;;;;;;;15.40;8.10;;;;;;;;;;4979729;28;20294;-78
2023/09/11 12:20:10;;;;;;;12.30;8.05;;;;;;;;;;4959304;28;20082;-79
2023/09/11 12:22:36;;;;;;;18.38;8.73;;;;;;;;;;4971774;28;20050;-78
2023/09/11 12:25:02;;;;;;;15.70;8.13;;;;;;;;;;4963447;28;20052;-78
2023/09/11 12:27:28;;;;;;;16.95;8.02;;;;;;;;;;4982734;28;20412;-78
2023/09/11 12:29:57;;;;;;;19.42;9.57;;;;;;;;;;4984146;28;20074;-78
2023/09/11 12:32:23;;;;;;;13.50;8.23;;;;;;;;;;4982477;28;20046;-79
2023/09/11 12:34:50;;;;;;;16.30;8.05;;;;;;;;;;4982419;28;20516;-78
2023/09/11 12:37:16;;;;;;;16.75;9.20;;;;;;;;;;4982523;28;20126;-78
2023/09/11 12:39:42;;;;;;;11.98;9.20;;;;;;;;;;4982265;28;20043;-78
2023/09/11 12:42:09;;;;;;;14.10;8.50;;;;;;;;;;4982970;28;20065;-78
2023/09/11 12:44:35;;;;;;;14.65;7.90;;;;;;;;;;4982961;28;20468;-79
2023/09/11 12:47:01;;;;;;;11.30;7.10;;;;;;;;;;4981174;28;20045;-78
2023/09/11 12:49:27;;;;;;;12.88;6.90;;;;;;;;;;4977759;28;20496;-78
2023/09/11 12:51:54;;;;;;;16.92;7.88;;;;;;;;;;4967004;28;20055;-78
2023/09/11 12:54:21;;;;;;;14.80;7.53;;;;;;;;;;4963865;29;20083;-78
2023/09/11 12:56:50;;;;;;;14.15;7.70;;;;;;;;;;4963179;29;20051;-79
2023/09/11 12:59:16;;;;;;;15.13;7.53;;;;;;;;;;4963498;29;20062;-78
2023/09/11 13:01:42;;;;;;;15.82;7.35;;;;;;;;;;4981882;28;20137;-79
2023/09/11 13:04:08;;;;;;;11.75;6.95;;;;;;;;;;4981714;28;20038;-78
2023/09/11 13:06:35;;;;;;;13.85;6.97;;;;;;;;;;4983160;28;20050;-79
2023/09/11 13:09:03;;;;;;;12.27;7.72;;;;;;;;;;4983327;28;20047;-78
2023/09/11 13:11:29;;;;;;;9.98;6.28;;;;;;;;;;4981877;28;20110;-79
2023/09/11 13:13:55;;;;;;;11.45;5.88;;;;;;;;;;4982879;28;20042;-79
2023/09/11 13:16:21;;;;;;;12.52;5.80;;;;;;;;;;4965235;28;20046;-78
2023/09/11 13:18:47;;;;;;;9.98;6.05;;;;;;;;;;4983122;28;20069;-79
2023/09/11 13:21:13;;;;;;;12.02;5.57;;;;;;;;;;4982125;28;20050;-78
2023/09/11 13:23:41;;;;;;;15.48;6.47;;;;;;;;;;4981878;28;20051;-77
2023/09/11 13:26:07;;;;;;;14.57;5.95;;;;;;;;;;4983655;28;20173;-78
2023/09/11 13:28:33;;;;;;;11.50;5.60;;;;;;;;;;4982144;28;20046;-79
2023/09/11 13:30:59;;;;;;;14.05;5.22;;;;;;;;;;4964300;28;20069;-78
2023/09/11 13:33:25;;;;;;;12.60;5.50;;;;;;;;;;4982571;28;20051;-78
2023/09/11 13:35:52;;;;;;;9.73;5.82;;;;;;;;;;4965699;28;20106;-76
2023/09/11 13:38:18;;;;;;;14.15;5.75;;;;;;;;;;4981654;28;20051;-78
2023/09/11 13:40:47;;;;;;;12.15;5.75;;;;;;;;;;4982733;28;20106;-78
2023/09/11 13:43:14;;;;;;;11.40;5.65;;;;;;;;;;4980423;28;20066;-78
2023/09/11 13:45:40;;;;;;;14.77;6.03;;;;;;;;;;4982104;28;20074;-79
2023/09/11 13:48:06;;;;;;;11.40;5.72;;;;;;;;;;4982515;28;20047;-79
2023/09/11 13:50:32;;;;;;;9.65;5.30;;;;;;;;;;4965034;28;20057;-79
2023/09/11 13:52:59;;;;;;;8.57;5.10;;;;;;;;;;4980840;28;20140;-78
2023/09/11 13:55:25;;;;;;;10.20;5.75;;;;;;;;;;4983867;28;20082;-80
2023/09/11 13:57:51;;;;;;;10.38;5.05;;;;;;;;;;4982142;28;20070;-78
2023/09/11 14:00:18;;;;;;;9.48;5.05;;;;;;;;;;4963526;28;20046;-78
2023/09/11 14:02:44;;;;;;;14.73;5.90;;;;;;;;;;4964672;28;20057;-78
2023/09/11 14:05:10;;;;;;;12.68;5.63;;;;;;;;;;4984064;28;20046;-78
2023/09/11 14:07:36;;;;;;;11.80;5.93;;;;;;;;;;4978518;28;20130;-78
2023/09/11 14:10:03;;;;;;;10.60;5.85;;;;;;;;;;4979305;28;20054;-78
2023/09/11 14:12:30;;;;;;;12.52;6.07;;;;;;;;;;4976821;28;20413;-78
2023/09/11 14:14:56;;;;;;;12.45;6.15;;;;;;;;;;4980876;28;20046;-78
2023/09/11 14:17:22;;;;;;;11.02;5.93;;;;;;;;;;4975944;28;20047;-78
2023/09/11 14:19:48;;;;;;;12.80;6.70;;;;;;;;;;4974165;28;20101;-78